sensor_id;sensor_type;location;lat;lon;timestamp;P1;durP1;ratioP1;P2;durP2;ratioP2
18931;SDS011;9598;50.954;3.112;2023-06-26T00:00:10;7.75;;;4.90;;
18931;SDS011;9598;50.954;3.112;2023-06-26T00:05:13;9.95;;;4.70;;
18931;SDS011;9598;50.954;3.112;2023-06-26T00:10:15;9.10;;;5.25;;
18931;SDS011;9598;50.954;3.112;2023-06-26T00:15:18;7.78;;;4.80;;
18931;SDS011;9598;50.954;3.112;2023-06-26T00:20:21;10.63;;;5.15;;
18931;SDS011;9598;50.954;3.112;2023-06-26T00:25:23;8.35;;;5.25;;
18931;SDS011;9598;50.954;3.112;2023-06-26T00:30:27;10.48;;;5.53;;
18931;SDS011;9598;50.954;3.112;2023-06-26T00:35:31;8.60;;;5.22;;
18931;SDS011;9598;50.954;3.112;2023-06-26T00:40:33;6.60;;;4.68;;
18931;SDS011;9598;50.954;3.112;2023-06-26T00:45:36;10.18;;;5.85;;
18931;SDS011;9598;50.954;3.112;2023-06-26T00:50:39;10.18;;;5.70;;
18931;SDS011;9598;50.954;3.112;2023-06-26T00:55:42;8.50;;;5.70;;
18931;SDS011;9598;50.954;3.112;2023-06-26T01:00:46;9.82;;;5.53;;
18931;SDS011;9598;50.954;3.112;2023-06-26T01:05:49;17.55;;;6.40;;
18931;SDS011;9598;50.954;3.112;2023-06-26T01:10:52;12.98;;;5.55;;
18931;SDS011;9598;50.954;3.112;2023-06-26T01:15:56;12.80;;;6.25;;
18931;SDS011;9598;50.954;3.112;2023-06-26T01:20:59;13.82;;;5.88;;
18931;SDS011;9598;50.954;3.112;2023-06-26T01:26:17;13.43;;;6.28;;
18931;SDS011;9598;50.954;3.112;2023-06-26T01:31:21;12.73;;;6.15;;
18931;SDS011;9598;50.954;3.112;2023-06-26T01:36:24;15.88;;;6.75;;
18931;SDS011;9598;50.954;3.112;2023-06-26T01:41:28;11.27;;;7.03;;
18931;SDS011;9598;50.954;3.112;2023-06-26T01:46:33;10.23;;;5.57;;
18931;SDS011;9598;50.954;3.112;2023-06-26T01:51:41;13.35;;;6.30;;
18931;SDS011;9598;50.954;3.112;2023-06-26T01:56:48;11.52;;;6.32;;
18931;SDS011;9598;50.954;3.112;2023-06-26T02:01:53;14.25;;;5.90;;
18931;SDS011;9598;50.954;3.112;2023-06-26T02:06:55;12.45;;;6.20;;
18931;SDS011;9598;50.954;3.112;2023-06-26T02:11:59;12.35;;;5.78;;
18931;SDS011;9598;50.954;3.112;2023-06-26T02:17:01;18.63;;;6.25;;
18931;SDS011;9598;50.954;3.112;2023-06-26T02:22:04;11.70;;;5.60;;
18931;SDS011;9598;50.954;3.112;2023-06-26T02:27:07;10.85;;;5.07;;
18931;SDS011;9598;50.954;3.112;2023-06-26T02:32:10;11.73;;;5.15;;
18931;SDS011;9598;50.954;3.112;2023-06-26T02:37:12;15.10;;;4.82;;
18931;SDS011;9598;50.954;3.112;2023-06-26T02:42:17;11.45;;;4.78;;
18931;SDS011;9598;50.954;3.112;2023-06-26T02:47:19;13.88;;;4.78;;
18931;SDS011;9598;50.954;3.112;2023-06-26T02:52:21;12.95;;;4.78;;
18931;SDS011;9598;50.954;3.112;2023-06-26T02:57:26;10.90;;;4.80;;
18931;SDS011;9598;50.954;3.112;2023-06-26T03:02:28;8.63;;;4.32;;
18931;SDS011;9598;50.954;3.112;2023-06-26T03:07:31;7.43;;;4.25;;
18931;SDS011;9598;50.954;3.112;2023-06-26T03:12:34;12.82;;;4.15;;
18931;SDS011;9598;50.954;3.112;2023-06-26T03:17:36;9.38;;;3.40;;
18931;SDS011;9598;50.954;3.112;2023-06-26T03:22:42;9.43;;;3.78;;
18931;SDS011;9598;50.954;3.112;2023-06-26T03:27:47;8.10;;;3.42;;
18931;SDS011;9598;50.954;3.112;2023-06-26T03:32:51;8.20;;;3.55;;
18931;SDS011;9598;50.954;3.112;2023-06-26T03:37:54;10.18;;;3.72;;
18931;SDS011;9598;50.954;3.112;2023-06-26T03:42:57;9.00;;;3.35;;
18931;SDS011;9598;50.954;3.112;2023-06-26T03:48:00;5.40;;;2.65;;
18931;SDS011;9598;50.954;3.112;2023-06-26T03:53:02;7.45;;;3.20;;
18931;SDS011;9598;50.954;3.112;2023-06-26T03:58:05;10.32;;;2.97;;
18931;SDS011;9598;50.954;3.112;2023-06-26T04:03:07;7.95;;;2.70;;
18931;SDS011;9598;50.954;3.112;2023-06-26T04:08:10;7.43;;;2.42;;
18931;SDS011;9598;50.954;3.112;2023-06-26T04:13:13;9.10;;;2.95;;
18931;SDS011;9598;50.954;3.112;2023-06-26T04:18:16;7.10;;;2.70;;
18931;SDS011;9598;50.954;3.112;2023-06-26T04:23:20;6.82;;;2.42;;
18931;SDS011;9598;50.954;3.112;2023-06-26T04:28:24;5.20;;;2.47;;
18931;SDS011;9598;50.954;3.112;2023-06-26T04:33:26;6.43;;;2.50;;
18931;SDS011;9598;50.954;3.112;2023-06-26T04:38:28;5.38;;;2.97;;
18931;SDS011;9598;50.954;3.112;2023-06-26T04:43:32;6.32;;;2.50;;
18931;SDS011;9598;50.954;3.112;2023-06-26T04:48:34;4.43;;;2.25;;
18931;SDS011;9598;50.954;3.112;2023-06-26T04:53:36;5.35;;;2.75;;
18931;SDS011;9598;50.954;3.112;2023-06-26T04:58:40;5.35;;;2.25;;
18931;SDS011;9598;50.954;3.112;2023-06-26T05:03:42;5.85;;;2.40;;
18931;SDS011;9598;50.954;3.112;2023-06-26T05:08:45;4.43;;;2.53;;
18931;SDS011;9598;50.954;3.112;2023-06-26T05:13:48;4.93;;;2.03;;
18931;SDS011;9598;50.954;3.112;2023-06-26T05:18:50;5.72;;;2.40;;
18931;SDS011;9598;50.954;3.112;2023-06-26T05:23:55;4.18;;;2.60;;
18931;SDS011;9598;50.954;3.112;2023-06-26T05:29:00;6.00;;;2.67;;
18931;SDS011;9598;50.954;3.112;2023-06-26T05:34:03;5.20;;;2.33;;
18931;SDS011;9598;50.954;3.112;2023-06-26T05:39:05;4.70;;;1.85;;
18931;SDS011;9598;50.954;3.112;2023-06-26T05:44:09;4.32;;;2.10;;
18931;SDS011;9598;50.954;3.112;2023-06-26T05:49:11;5.75;;;2.38;;
18931;SDS011;9598;50.954;3.112;2023-06-26T05:54:14;6.97;;;2.47;;
18931;SDS011;9598;50.954;3.112;2023-06-26T05:59:18;5.13;;;2.50;;
18931;SDS011;9598;50.954;3.112;2023-06-26T06:04:20;4.88;;;2.80;;
18931;SDS011;9598;50.954;3.112;2023-06-26T06:09:22;5.53;;;2.40;;
18931;SDS011;9598;50.954;3.112;2023-06-26T06:14:26;7.80;;;2.38;;
18931;SDS011;9598;50.954;3.112;2023-06-26T06:19:28;4.10;;;2.20;;
18931;SDS011;9598;50.954;3.112;2023-06-26T06:24:30;5.15;;;2.20;;
18931;SDS011;9598;50.954;3.112;2023-06-26T06:29:34;5.32;;;2.40;;
18931;SDS011;9598;50.954;3.112;2023-06-26T06:34:36;4.82;;;2.70;;
18931;SDS011;9598;50.954;3.112;2023-06-26T06:39:38;5.38;;;2.72;;
18931;SDS011;9598;50.954;3.112;2023-06-26T06:44:41;4.68;;;2.42;;
18931;SDS011;9598;50.954;3.112;2023-06-26T06:49:43;6.30;;;3.00;;
18931;SDS011;9598;50.954;3.112;2023-06-26T06:54:52;6.32;;;2.40;;
18931;SDS011;9598;50.954;3.112;2023-06-26T06:59:56;5.60;;;2.35;;
18931;SDS011;9598;50.954;3.112;2023-06-26T07:04:58;7.28;;;2.80;;
18931;SDS011;9598;50.954;3.112;2023-06-26T07:10:01;6.63;;;2.80;;
18931;SDS011;9598;50.954;3.112;2023-06-26T07:15:07;9.40;;;3.05;;
18931;SDS011;9598;50.954;3.112;2023-06-26T07:20:10;6.03;;;2.47;;
18931;SDS011;9598;50.954;3.112;2023-06-26T07:25:16;7.35;;;2.58;;
18931;SDS011;9598;50.954;3.112;2023-06-26T07:30:19;3.65;;;2.45;;
18931;SDS011;9598;50.954;3.112;2023-06-26T07:35:21;6.93;;;2.75;;
18931;SDS011;9598;50.954;3.112;2023-06-26T07:40:25;4.53;;;2.60;;
18931;SDS011;9598;50.954;3.112;2023-06-26T07:45:29;6.47;;;2.50;;
18931;SDS011;9598;50.954;3.112;2023-06-26T07:50:31;3.58;;;2.42;;
18931;SDS011;9598;50.954;3.112;2023-06-26T07:55:33;6.53;;;2.47;;
18931;SDS011;9598;50.954;3.112;2023-06-26T08:00:37;6.97;;;3.05;;
18931;SDS011;9598;50.954;3.112;2023-06-26T08:05:39;5.85;;;3.20;;
18931;SDS011;9598;50.954;3.112;2023-06-26T08:10:41;8.35;;;3.55;;
18931;SDS011;9598;50.954;3.112;2023-06-26T08:15:44;6.13;;;3.30;;
18931;SDS011;9598;50.954;3.112;2023-06-26T08:20:47;5.75;;;2.95;;
18931;SDS011;9598;50.954;3.112;2023-06-26T08:25:49;5.57;;;2.65;;
18931;SDS011;9598;50.954;3.112;2023-06-26T08:30:52;4.88;;;2.38;;
18931;SDS011;9598;50.954;3.112;2023-06-26T08:35:54;6.10;;;3.20;;
18931;SDS011;9598;50.954;3.112;2023-06-26T08:40:57;4.80;;;3.15;;
18931;SDS011;9598;50.954;3.112;2023-06-26T08:46:00;3.88;;;2.28;;
18931;SDS011;9598;50.954;3.112;2023-06-26T08:51:05;5.03;;;2.28;;
18931;SDS011;9598;50.954;3.112;2023-06-26T08:56:10;3.40;;;2.03;;
18931;SDS011;9598;50.954;3.112;2023-06-26T09:01:18;2.97;;;2.00;;
18931;SDS011;9598;50.954;3.112;2023-06-26T09:06:21;5.22;;;2.25;;
18931;SDS011;9598;50.954;3.112;2023-06-26T09:11:23;3.92;;;1.90;;
18931;SDS011;9598;50.954;3.112;2023-06-26T09:16:26;5.72;;;1.95;;
18931;SDS011;9598;50.954;3.112;2023-06-26T09:21:29;3.20;;;1.60;;
18931;SDS011;9598;50.954;3.112;2023-06-26T09:26:32;2.92;;;1.90;;
18931;SDS011;9598;50.954;3.112;2023-06-26T09:31:36;4.82;;;1.83;;
18931;SDS011;9598;50.954;3.112;2023-06-26T09:36:38;4.07;;;2.30;;
18931;SDS011;9598;50.954;3.112;2023-06-26T09:41:42;4.93;;;1.58;;
18931;SDS011;9598;50.954;3.112;2023-06-26T09:46:46;4.25;;;1.65;;
18931;SDS011;9598;50.954;3.112;2023-06-26T09:51:48;3.75;;;2.13;;
18931;SDS011;9598;50.954;3.112;2023-06-26T09:56:52;3.55;;;1.48;;
18931;SDS011;9598;50.954;3.112;2023-06-26T10:01:59;4.70;;;1.70;;
18931;SDS011;9598;50.954;3.112;2023-06-26T10:07:02;3.33;;;1.67;;
18931;SDS011;9598;50.954;3.112;2023-06-26T10:12:09;2.45;;;1.73;;
18931;SDS011;9598;50.954;3.112;2023-06-26T10:17:19;3.67;;;1.75;;
18931;SDS011;9598;50.954;3.112;2023-06-26T10:22:23;4.28;;;1.83;;
18931;SDS011;9598;50.954;3.112;2023-06-26T10:27:30;3.67;;;1.70;;
18931;SDS011;9598;50.954;3.112;2023-06-26T10:32:38;3.80;;;2.00;;
18931;SDS011;9598;50.954;3.112;2023-06-26T10:37:42;2.78;;;1.60;;
18931;SDS011;9598;50.954;3.112;2023-06-26T10:42:45;3.22;;;1.50;;
18931;SDS011;9598;50.954;3.112;2023-06-26T10:47:48;3.60;;;1.80;;
18931;SDS011;9598;50.954;3.112;2023-06-26T10:53:10;4.07;;;1.85;;
18931;SDS011;9598;50.954;3.112;2023-06-26T10:58:32;4.57;;;1.65;;
18931;SDS011;9598;50.954;3.112;2023-06-26T11:03:37;3.63;;;1.80;;
18931;SDS011;9598;50.954;3.112;2023-06-26T11:08:46;4.68;;;1.80;;
18931;SDS011;9598;50.954;3.112;2023-06-26T11:13:49;4.00;;;1.77;;
18931;SDS011;9598;50.954;3.112;2023-06-26T11:18:54;2.20;;;1.70;;
18931;SDS011;9598;50.954;3.112;2023-06-26T11:24:00;5.43;;;2.17;;
18931;SDS011;9598;50.954;3.112;2023-06-26T11:29:03;5.45;;;2.22;;
18931;SDS011;9598;50.954;3.112;2023-06-26T11:34:08;4.18;;;1.83;;
18931;SDS011;9598;50.954;3.112;2023-06-26T11:39:12;4.47;;;1.80;;
18931;SDS011;9598;50.954;3.112;2023-06-26T11:44:14;5.45;;;1.98;;
18931;SDS011;9598;50.954;3.112;2023-06-26T11:49:22;4.72;;;2.40;;
18931;SDS011;9598;50.954;3.112;2023-06-26T11:54:26;3.05;;;2.05;;
18931;SDS011;9598;50.954;3.112;2023-06-26T11:59:33;3.92;;;1.60;;
18931;SDS011;9598;50.954;3.112;2023-06-26T12:04:38;3.47;;;1.90;;
18931;SDS011;9598;50.954;3.112;2023-06-26T12:09:43;3.55;;;2.03;;
18931;SDS011;9598;50.954;3.112;2023-06-26T12:14:47;4.18;;;1.92;;
18931;SDS011;9598;50.954;3.112;2023-06-26T12:19:51;4.57;;;1.80;;
18931;SDS011;9598;50.954;3.112;2023-06-26T12:24:56;2.55;;;1.50;;
18931;SDS011;9598;50.954;3.112;2023-06-26T12:29:58;3.60;;;2.15;;
18931;SDS011;9598;50.954;3.112;2023-06-26T12:35:06;3.28;;;2.17;;
18931;SDS011;9598;50.954;3.112;2023-06-26T12:40:16;2.75;;;2.13;;
18931;SDS011;9598;50.954;3.112;2023-06-26T12:45:23;2.78;;;1.98;;
18931;SDS011;9598;50.954;3.112;2023-06-26T12:50:27;5.43;;;2.25;;
18931;SDS011;9598;50.954;3.112;2023-06-26T12:55:29;2.42;;;1.70;;
18931;SDS011;9598;50.954;3.112;2023-06-26T13:00:31;4.90;;;1.75;;
18931;SDS011;9598;50.954;3.112;2023-06-26T13:05:35;3.95;;;1.60;;
18931;SDS011;9598;50.954;3.112;2023-06-26T13:10:37;1.88;;;1.27;;
18931;SDS011;9598;50.954;3.112;2023-06-26T13:15:40;2.97;;;1.25;;
18931;SDS011;9598;50.954;3.112;2023-06-26T13:20:43;3.53;;;1.40;;
18931;SDS011;9598;50.954;3.112;2023-06-26T13:25:45;1.35;;;1.20;;
18931;SDS011;9598;50.954;3.112;2023-06-26T13:30:47;2.78;;;1.60;;
18931;SDS011;9598;50.954;3.112;2023-06-26T13:35:51;2.55;;;1.60;;
18931;SDS011;9598;50.954;3.112;2023-06-26T13:40:54;3.42;;;1.50;;
18931;SDS011;9598;50.954;3.112;2023-06-26T13:45:58;3.08;;;1.30;;
18931;SDS011;9598;50.954;3.112;2023-06-26T13:51:01;2.00;;;1.60;;
18931;SDS011;9598;50.954;3.112;2023-06-26T13:56:03;2.47;;;1.33;;
18931;SDS011;9598;50.954;3.112;2023-06-26T14:01:06;2.80;;;1.30;;
18931;SDS011;9598;50.954;3.112;2023-06-26T14:06:09;2.92;;;1.20;;
18931;SDS011;9598;50.954;3.112;2023-06-26T14:11:11;3.85;;;1.55;;
18931;SDS011;9598;50.954;3.112;2023-06-26T14:16:15;4.53;;;1.75;;
18931;SDS011;9598;50.954;3.112;2023-06-26T14:21:20;3.72;;;1.90;;
18931;SDS011;9598;50.954;3.112;2023-06-26T14:26:22;4.50;;;1.88;;
18931;SDS011;9598;50.954;3.112;2023-06-26T14:31:24;4.55;;;1.40;;
18931;SDS011;9598;50.954;3.112;2023-06-26T14:36:28;4.65;;;1.80;;
18931;SDS011;9598;50.954;3.112;2023-06-26T14:41:31;4.38;;;1.80;;
18931;SDS011;9598;50.954;3.112;2023-06-26T14:46:33;3.05;;;1.67;;
18931;SDS011;9598;50.954;3.112;2023-06-26T14:51:36;4.20;;;2.05;;
18931;SDS011;9598;50.954;3.112;2023-06-26T14:56:40;3.63;;;2.08;;
18931;SDS011;9598;50.954;3.112;2023-06-26T15:01:44;3.53;;;1.70;;
18931;SDS011;9598;50.954;3.112;2023-06-26T15:06:47;5.70;;;2.05;;
18931;SDS011;9598;50.954;3.112;2023-06-26T15:11:50;3.40;;;1.67;;
18931;SDS011;9598;50.954;3.112;2023-06-26T15:16:53;3.97;;;2.10;;
18931;SDS011;9598;50.954;3.112;2023-06-26T15:21:56;6.05;;;2.47;;
18931;SDS011;9598;50.954;3.112;2023-06-26T15:26:59;5.35;;;2.00;;
18931;SDS011;9598;50.954;3.112;2023-06-26T15:32:01;3.78;;;1.83;;
18931;SDS011;9598;50.954;3.112;2023-06-26T15:37:04;3.17;;;1.77;;
18931;SDS011;9598;50.954;3.112;2023-06-26T15:42:06;5.97;;;2.00;;
18931;SDS011;9598;50.954;3.112;2023-06-26T15:47:08;2.97;;;1.65;;
18931;SDS011;9598;50.954;3.112;2023-06-26T15:52:12;3.72;;;1.80;;
18931;SDS011;9598;50.954;3.112;2023-06-26T15:57:14;4.20;;;1.63;;
18931;SDS011;9598;50.954;3.112;2023-06-26T16:02:16;4.13;;;2.15;;
18931;SDS011;9598;50.954;3.112;2023-06-26T16:07:20;4.78;;;1.75;;
18931;SDS011;9598;50.954;3.112;2023-06-26T16:12:22;7.53;;;2.65;;
18931;SDS011;9598;50.954;3.112;2023-06-26T16:17:24;4.40;;;2.20;;
18931;SDS011;9598;50.954;3.112;2023-06-26T16:22:28;6.13;;;2.28;;
18931;SDS011;9598;50.954;3.112;2023-06-26T16:27:30;3.42;;;1.75;;
18931;SDS011;9598;50.954;3.112;2023-06-26T16:32:32;5.40;;;2.40;;
18931;SDS011;9598;50.954;3.112;2023-06-26T16:37:35;6.70;;;2.50;;
18931;SDS011;9598;50.954;3.112;2023-06-26T16:42:37;6.25;;;2.45;;
18931;SDS011;9598;50.954;3.112;2023-06-26T16:47:39;6.95;;;2.30;;
18931;SDS011;9598;50.954;3.112;2023-06-26T16:52:43;8.05;;;2.53;;
18931;SDS011;9598;50.954;3.112;2023-06-26T16:57:45;5.90;;;2.17;;
18931;SDS011;9598;50.954;3.112;2023-06-26T17:02:47;6.00;;;2.28;;
18931;SDS011;9598;50.954;3.112;2023-06-26T17:07:50;3.75;;;2.45;;
18931;SDS011;9598;50.954;3.112;2023-06-26T17:12:53;8.57;;;2.53;;
18931;SDS011;9598;50.954;3.112;2023-06-26T17:17:55;4.20;;;1.88;;
18931;SDS011;9598;50.954;3.112;2023-06-26T17:22:59;3.92;;;2.03;;
18931;SDS011;9598;50.954;3.112;2023-06-26T17:28:01;7.28;;;2.50;;
18931;SDS011;9598;50.954;3.112;2023-06-26T17:33:03;5.60;;;2.22;;
18931;SDS011;9598;50.954;3.112;2023-06-26T17:38:06;5.68;;;2.05;;
18931;SDS011;9598;50.954;3.112;2023-06-26T17:43:09;6.05;;;2.00;;
18931;SDS011;9598;50.954;3.112;2023-06-26T17:48:11;7.35;;;2.35;;
18931;SDS011;9598;50.954;3.112;2023-06-26T17:53:15;5.28;;;2.00;;
18931;SDS011;9598;50.954;3.112;2023-06-26T17:58:18;4.95;;;2.10;;
18931;SDS011;9598;50.954;3.112;2023-06-26T18:03:20;6.10;;;2.25;;
18931;SDS011;9598;50.954;3.112;2023-06-26T18:08:23;6.97;;;2.40;;
18931;SDS011;9598;50.954;3.112;2023-06-26T18:13:25;6.20;;;2.20;;
18931;SDS011;9598;50.954;3.112;2023-06-26T18:18:28;9.20;;;2.60;;
18931;SDS011;9598;50.954;3.112;2023-06-26T18:23:32;7.13;;;2.75;;
18931;SDS011;9598;50.954;3.112;2023-06-26T18:28:34;7.10;;;2.55;;
18931;SDS011;9598;50.954;3.112;2023-06-26T18:33:36;5.85;;;2.55;;
18931;SDS011;9598;50.954;3.112;2023-06-26T18:38:39;6.72;;;2.50;;
18931;SDS011;9598;50.954;3.112;2023-06-26T18:43:42;5.18;;;2.53;;
18931;SDS011;9598;50.954;3.112;2023-06-26T18:48:47;4.63;;;2.35;;
18931;SDS011;9598;50.954;3.112;2023-06-26T18:53:50;6.05;;;2.40;;
18931;SDS011;9598;50.954;3.112;2023-06-26T18:58:53;7.28;;;2.58;;
18931;SDS011;9598;50.954;3.112;2023-06-26T19:03:55;6.93;;;2.90;;
18931;SDS011;9598;50.954;3.112;2023-06-26T19:08:59;5.90;;;2.40;;
18931;SDS011;9598;50.954;3.112;2023-06-26T19:14:01;6.50;;;2.40;;
18931;SDS011;9598;50.954;3.112;2023-06-26T19:19:03;5.53;;;2.45;;
18931;SDS011;9598;50.954;3.112;2023-06-26T19:24:07;6.47;;;2.35;;
18931;SDS011;9598;50.954;3.112;2023-06-26T19:29:09;7.10;;;2.20;;
18931;SDS011;9598;50.954;3.112;2023-06-26T19:34:11;4.72;;;2.28;;
18931;SDS011;9598;50.954;3.112;2023-06-26T19:39:14;10.02;;;2.95;;
18931;SDS011;9598;50.954;3.112;2023-06-26T19:44:16;6.35;;;2.33;;
18931;SDS011;9598;50.954;3.112;2023-06-26T19:49:18;6.05;;;2.20;;
18931;SDS011;9598;50.954;3.112;2023-06-26T19:54:22;9.63;;;2.70;;
18931;SDS011;9598;50.954;3.112;2023-06-26T19:59:24;6.55;;;2.33;;
18931;SDS011;9598;50.954;3.112;2023-06-26T20:04:27;7.47;;;2.40;;
18931;SDS011;9598;50.954;3.112;2023-06-26T20:09:31;5.88;;;2.42;;
18931;SDS011;9598;50.954;3.112;2023-06-26T20:14:33;6.35;;;2.58;;
18931;SDS011;9598;50.954;3.112;2023-06-26T20:19:35;5.72;;;2.10;;
18931;SDS011;9598;50.954;3.112;2023-06-26T20:24:38;7.35;;;2.80;;
18931;SDS011;9598;50.954;3.112;2023-06-26T20:29:40;5.03;;;2.15;;
18931;SDS011;9598;50.954;3.112;2023-06-26T20:34:43;6.85;;;2.35;;
18931;SDS011;9598;50.954;3.112;2023-06-26T20:39:47;6.80;;;2.90;;
18931;SDS011;9598;50.954;3.112;2023-06-26T20:44:49;6.80;;;2.22;;
18931;SDS011;9598;50.954;3.112;2023-06-26T20:49:54;8.52;;;2.60;;
18931;SDS011;9598;50.954;3.112;2023-06-26T20:54:58;9.93;;;3.00;;
18931;SDS011;9598;50.954;3.112;2023-06-26T21:00:01;7.30;;;3.00;;
18931;SDS011;9598;50.954;3.112;2023-06-26T21:05:04;6.72;;;2.38;;
18931;SDS011;9598;50.954;3.112;2023-06-26T21:10:08;10.13;;;3.08;;
18931;SDS011;9598;50.954;3.112;2023-06-26T21:15:10;5.50;;;2.80;;
18931;SDS011;9598;50.954;3.112;2023-06-26T21:20:13;7.65;;;2.53;;
18931;SDS011;9598;50.954;3.112;2023-06-26T21:25:16;6.80;;;2.53;;
18931;SDS011;9598;50.954;3.112;2023-06-26T21:30:20;8.48;;;2.55;;
18931;SDS011;9598;50.954;3.112;2023-06-26T21:35:22;7.72;;;2.55;;
18931;SDS011;9598;50.954;3.112;2023-06-26T21:40:26;11.48;;;3.10;;
18931;SDS011;9598;50.954;3.112;2023-06-26T21:45:28;8.73;;;2.70;;
18931;SDS011;9598;50.954;3.112;2023-06-26T21:50:30;7.03;;;2.72;;
18931;SDS011;9598;50.954;3.112;2023-06-26T21:55:33;8.05;;;2.75;;
18931;SDS011;9598;50.954;3.112;2023-06-26T22:00:36;5.80;;;2.50;;
18931;SDS011;9598;50.954;3.112;2023-06-26T22:05:38;7.00;;;2.67;;
18931;SDS011;9598;50.954;3.112;2023-06-26T22:10:41;7.32;;;2.88;;
18931;SDS011;9598;50.954;3.112;2023-06-26T22:15:43;9.88;;;3.10;;
18931;SDS011;9598;50.954;3.112;2023-06-26T22:20:45;8.50;;;2.97;;
18931;SDS011;9598;50.954;3.112;2023-06-26T22:25:50;11.63;;;3.38;;
18931;SDS011;9598;50.954;3.112;2023-06-26T22:30:53;11.43;;;3.25;;
18931;SDS011;9598;50.954;3.112;2023-06-26T22:35:55;8.30;;;3.45;;
18931;SDS011;9598;50.954;3.112;2023-06-26T22:40:59;9.20;;;2.88;;
18931;SDS011;9598;50.954;3.112;2023-06-26T22:46:01;8.75;;;2.72;;
18931;SDS011;9598;50.954;3.112;2023-06-26T22:51:03;8.73;;;3.17;;
18931;SDS011;9598;50.954;3.112;2023-06-26T22:56:06;8.52;;;3.33;;
18931;SDS011;9598;50.954;3.112;2023-06-26T23:01:08;10.13;;;3.30;;
18931;SDS011;9598;50.954;3.112;2023-06-26T23:06:13;11.18;;;3.42;;
18931;SDS011;9598;50.954;3.112;2023-06-26T23:11:23;8.63;;;2.95;;
18931;SDS011;9598;50.954;3.112;2023-06-26T23:16:25;11.18;;;3.42;;
18931;SDS011;9598;50.954;3.112;2023-06-26T23:21:27;6.18;;;2.67;;
18931;SDS011;9598;50.954;3.112;2023-06-26T23:26:30;10.77;;;3.60;;
18931;SDS011;9598;50.954;3.112;2023-06-26T23:31:32;7.82;;;3.13;;
18931;SDS011;9598;50.954;3.112;2023-06-26T23:36:37;10.88;;;3.40;;
18931;SDS011;9598;50.954;3.112;2023-06-26T23:41:41;10.13;;;3.63;;
18931;SDS011;9598;50.954;3.112;2023-06-26T23:46:44;11.85;;;3.17;;
18931;SDS011;9598;50.954;3.112;2023-06-26T23:51:46;11.32;;;3.00;;
18931;SDS011;9598;50.954;3.112;2023-06-26T23:56:49;8.05;;;3.15;;
